createdAt,value
2022-09-23T00:01:03.407Z,8.50
2022-09-23T00:03:31.500Z,7.03
2022-09-23T00:06:03.400Z,6.77
2022-09-23T00:08:30.531Z,8.60
2022-09-23T00:10:57.295Z,7.80
2022-09-23T00:13:24.782Z,7.43
2022-09-23T00:15:52.196Z,6.10
2022-09-23T00:18:20.695Z,8.70
2022-09-23T00:20:47.254Z,7.63
2022-09-23T00:23:13.817Z,7.27
2022-09-23T00:25:40.223Z,7.83
2022-09-23T00:28:06.591Z,7.20
2022-09-23T00:30:33.023Z,8.43
2022-09-23T00:33:00.251Z,6.50
2022-09-23T00:35:26.730Z,7.93
2022-09-23T00:37:53.095Z,7.20
2022-09-23T00:40:19.587Z,7.23
2022-09-23T00:42:51.956Z,7.73
2022-09-23T00:45:19.340Z,6.80
2022-09-23T00:47:59.017Z,7.00
2022-09-23T00:50:36.236Z,8.27
2022-09-23T00:53:15.864Z,7.70
2022-09-23T00:55:52.935Z,7.83
2022-09-23T00:58:23.569Z,8.90
2022-09-23T01:00:50.124Z,6.43
2022-09-23T01:03:16.484Z,7.30
2022-09-23T01:05:42.962Z,9.13
2022-09-23T01:08:12.860Z,8.83
2022-09-23T01:11:20.605Z,7.93
2022-09-23T01:14:26.317Z,6.40
2022-09-23T01:16:58.589Z,6.33
2022-09-23T01:19:27.954Z,7.67
2022-09-23T01:22:01.956Z,8.53
2022-09-23T01:24:47.123Z,6.50
2022-09-23T01:28:01.347Z,7.00
2022-09-23T01:30:55.374Z,7.13
2022-09-23T01:33:30.440Z,7.33
2022-09-23T01:36:13.871Z,7.23
2022-09-23T01:38:40.171Z,7.47
2022-09-23T01:41:16.152Z,7.83
2022-09-23T01:43:58.235Z,7.07
2022-09-23T01:46:30.449Z,7.13
2022-09-23T01:49:12.633Z,9.33
2022-09-23T01:51:43.997Z,6.70
2022-09-23T01:54:46.235Z,8.00
2022-09-23T01:57:16.071Z,6.90
2022-09-23T01:59:50.947Z,6.37
2022-09-23T02:02:28.342Z,8.60
2022-09-23T02:05:00.493Z,7.07
2022-09-23T02:07:57.293Z,7.77
2022-09-23T02:10:42.060Z,6.67
2022-09-23T02:13:16.948Z,9.13
2022-09-23T02:15:51.525Z,8.17
2022-09-23T02:18:24.665Z,13.97
2022-09-23T02:20:54.684Z,8.00
2022-09-23T02:23:25.448Z,7.77
2022-09-23T02:26:02.962Z,9.60
2022-09-23T02:28:51.694Z,8.23
2022-09-23T02:31:33.132Z,7.87
2022-09-23T02:34:17.408Z,7.87
2022-09-23T02:37:07.108Z,7.30
2022-09-23T02:39:48.872Z,9.70
2022-09-23T02:42:22.003Z,9.60
2022-09-23T02:44:48.662Z,7.73
2022-09-23T02:47:19.126Z,10.10
2022-09-23T02:49:45.644Z,9.10
2022-09-23T02:52:13.665Z,10.20
2022-09-23T02:54:40.666Z,9.67
2022-09-23T02:57:08.249Z,9.83
2022-09-23T02:59:35.852Z,7.87
2022-09-23T03:02:24.208Z,8.37
2022-09-23T03:05:00.097Z,9.70
2022-09-23T03:08:00.332Z,7.27
2022-09-23T03:10:35.135Z,10.50
2022-09-23T03:13:40.809Z,7.00
2022-09-23T03:16:40.734Z,9.60
2022-09-23T03:19:47.772Z,7.93
2022-09-23T03:22:22.542Z,8.80
2022-09-23T03:24:54.005Z,9.60
2022-09-23T03:27:25.839Z,9.30
2022-09-23T03:29:54.054Z,7.27
2022-09-23T03:32:24.744Z,8.90
2022-09-23T03:34:53.843Z,9.47
2022-09-23T03:37:31.352Z,7.20
2022-09-23T03:40:12.217Z,9.13
2022-09-23T03:42:39.759Z,7.43
2022-09-23T03:45:13.004Z,9.43
2022-09-23T03:47:39.539Z,9.20
2022-09-23T03:50:06.509Z,8.20
2022-09-23T03:52:32.956Z,8.67
2022-09-23T03:54:59.445Z,8.00
2022-09-23T03:57:25.819Z,9.40
2022-09-23T03:59:52.550Z,8.60
2022-09-23T04:02:19.825Z,8.60
2022-09-23T04:04:46.798Z,12.40
2022-09-23T04:07:13.674Z,9.63
2022-09-23T04:09:40.457Z,9.17
2022-09-23T04:12:07.631Z,9.53
2022-09-23T04:14:34.039Z,9.23
2022-09-23T04:17:00.422Z,9.87
2022-09-23T04:19:26.790Z,9.57
2022-09-23T04:21:53.206Z,9.00
2022-09-23T04:24:19.752Z,10.50
2022-09-23T04:26:46.164Z,8.43
2022-09-23T04:29:12.551Z,8.63
2022-09-23T04:31:39.054Z,10.17
2022-09-23T04:34:05.540Z,8.83
2022-09-23T04:36:32.003Z,7.97
2022-09-23T04:38:58.501Z,10.73
2022-09-23T04:41:24.919Z,8.63
2022-09-23T04:43:51.303Z,9.73
2022-09-23T04:46:17.968Z,8.93
2022-09-23T04:48:44.790Z,9.63
2022-09-23T04:51:12.925Z,10.17
2022-09-23T04:53:41.526Z,7.60
2022-09-23T04:56:11.636Z,10.40
2022-09-23T04:58:39.195Z,10.43
2022-09-23T05:01:17.208Z,8.47
2022-09-23T05:03:44.708Z,8.40
2022-09-23T05:06:16.326Z,10.00
2022-09-23T05:08:49.221Z,10.80
2022-09-23T05:11:16.452Z,9.43
2022-09-23T05:13:42.793Z,7.93
2022-09-23T05:16:12.471Z,10.30
2022-09-23T05:18:42.759Z,8.43
2022-09-23T05:21:14.520Z,8.80
2022-09-23T05:23:41.949Z,10.37
2022-09-23T05:26:11.646Z,8.27
2022-09-23T05:28:39.417Z,8.10
2022-09-23T05:31:19.939Z,11.33
2022-09-23T05:33:49.754Z,7.80
2022-09-23T05:36:17.871Z,9.67
2022-09-23T05:38:45.106Z,8.83
2022-09-23T05:41:13.428Z,9.77
2022-09-23T05:43:40.287Z,9.57
2022-09-23T05:46:18.225Z,7.80
2022-09-23T05:48:46.215Z,9.30
2022-09-23T05:51:32.316Z,8.70
2022-09-23T05:53:59.880Z,11.87
2022-09-23T05:56:27.938Z,7.27
2022-09-23T05:58:56.652Z,9.00
2022-09-23T06:01:27.992Z,9.20
2022-09-23T06:03:56.303Z,9.67
2022-09-23T06:06:38.041Z,12.63
2022-09-23T06:09:05.824Z,9.17
2022-09-23T06:11:34.700Z,12.30
2022-09-23T06:14:02.997Z,8.53
2022-09-23T06:16:32.199Z,8.60
2022-09-23T06:19:05.139Z,8.17
2022-09-23T06:21:34.010Z,8.40
2022-09-23T06:24:00.858Z,8.00
2022-09-23T06:26:28.378Z,8.37
2022-09-23T06:28:54.746Z,8.07
2022-09-23T06:31:21.156Z,7.20
2022-09-23T06:33:50.252Z,7.13
2022-09-23T06:36:33.906Z,8.40
2022-09-23T06:39:03.704Z,8.27
2022-09-23T06:41:30.085Z,8.40
2022-09-23T06:43:56.418Z,7.90
2022-09-23T06:46:22.812Z,8.27
2022-09-23T06:48:51.075Z,9.23
2022-09-23T06:51:21.652Z,11.53
2022-09-23T06:53:49.088Z,9.50
2022-09-23T06:56:17.311Z,8.10
2022-09-23T06:58:43.842Z,11.57
2022-09-23T07:01:13.175Z,9.33
2022-09-23T07:03:39.645Z,9.63
2022-09-23T07:06:08.022Z,8.07
2022-09-23T07:08:35.128Z,9.87
2022-09-23T07:11:04.584Z,12.53
2022-09-23T07:13:33.287Z,9.23
2022-09-23T07:16:02.064Z,7.17
2022-09-23T07:18:36.739Z,9.23
2022-09-23T07:21:15.895Z,12.87
2022-09-23T07:23:43.460Z,7.93
2022-09-23T07:26:10.350Z,11.10
2022-09-23T07:28:37.343Z,8.67
2022-09-23T07:31:06.798Z,7.60
2022-09-23T07:33:35.708Z,9.77
2022-09-23T07:36:10.897Z,8.40
2022-09-23T07:38:41.543Z,8.57
2022-09-23T07:41:13.590Z,8.83
2022-09-23T07:43:40.802Z,9.13
2022-09-23T07:46:11.060Z,8.77
2022-09-23T07:48:38.601Z,8.77
2022-09-23T07:51:21.071Z,8.87
2022-09-23T07:53:49.088Z,8.17
2022-09-23T07:56:17.235Z,9.17
2022-09-23T07:58:43.647Z,8.83
2022-09-23T08:01:12.027Z,10.60
2022-09-23T08:03:39.356Z,11.63
2022-09-23T08:06:08.273Z,8.10
2022-09-23T08:08:35.607Z,9.30
2022-09-23T08:11:04.007Z,9.10
2022-09-23T08:13:30.892Z,15.93
2022-09-23T08:15:58.162Z,8.30
2022-09-23T08:18:25.076Z,8.90
2022-09-23T08:20:52.147Z,8.63
2022-09-23T08:23:20.989Z,10.00
2022-09-23T08:25:48.053Z,9.57
2022-09-23T08:28:19.109Z,8.83
2022-09-23T08:30:48.731Z,8.77
2022-09-23T08:33:19.676Z,9.17
2022-09-23T08:35:49.253Z,10.03
2022-09-23T08:38:15.695Z,11.47
2022-09-23T08:40:44.999Z,9.63
2022-09-23T08:43:32.769Z,9.43
2022-09-23T08:46:05.201Z,12.10
2022-09-23T08:48:43.160Z,8.83
2022-09-23T08:51:23.655Z,9.67
2022-09-23T08:53:50.295Z,10.67
2022-09-23T08:56:19.872Z,10.17
2022-09-23T08:58:53.347Z,9.43
2022-09-23T09:01:38.014Z,9.57
2022-09-23T09:04:14.496Z,11.10
2022-09-23T09:06:53.048Z,12.20
2022-09-23T09:09:26.997Z,10.93
2022-09-23T09:12:02.144Z,8.30
2022-09-23T09:14:43.713Z,11.23
2022-09-23T09:17:16.510Z,8.87
2022-09-23T09:19:48.437Z,9.53
2022-09-23T09:22:21.423Z,9.47
2022-09-23T09:24:49.744Z,9.47
2022-09-23T09:27:16.319Z,8.80
2022-09-23T09:29:49.780Z,9.90
2022-09-23T09:32:46.196Z,13.43
2022-09-23T09:35:35.076Z,7.47
2022-09-23T09:38:01.869Z,7.43
2022-09-23T09:40:28.361Z,8.67
2022-09-23T09:42:54.871Z,8.40
2022-09-23T09:45:30.063Z,9.13
2022-09-23T09:48:12.418Z,8.33
2022-09-23T09:50:52.950Z,10.23
2022-09-23T09:53:39.526Z,11.33
2022-09-23T09:56:08.714Z,7.23
2022-09-23T09:58:37.321Z,7.20
2022-09-23T10:01:05.511Z,6.30
2022-09-23T10:03:41.368Z,7.53
2022-09-23T10:06:20.755Z,6.43
2022-09-23T10:09:08.773Z,8.77
2022-09-23T10:11:35.567Z,7.67
2022-09-23T10:14:13.959Z,7.30
2022-09-23T10:16:41.971Z,6.40
2022-09-23T10:19:24.542Z,7.13
2022-09-23T10:21:59.839Z,6.27
2022-09-23T10:24:30.465Z,8.50
2022-09-23T10:27:01.577Z,7.57
2022-09-23T10:29:38.828Z,7.87
2022-09-23T10:32:25.832Z,8.83
2022-09-23T10:35:16.801Z,6.67
2022-09-23T10:37:57.783Z,6.83
2022-09-23T10:40:49.198Z,6.77
2022-09-23T10:43:43.563Z,7.43
2022-09-23T10:46:37.977Z,7.00
2022-09-23T10:49:24.540Z,7.80
2022-09-23T10:52:16.997Z,8.33
2022-09-23T10:55:02.101Z,7.93
2022-09-23T10:57:50.981Z,6.80
2022-09-23T11:00:25.672Z,7.27
2022-09-23T11:03:17.466Z,8.83
2022-09-23T11:05:59.040Z,8.10
2022-09-23T11:08:50.967Z,6.87
2022-09-23T11:11:40.454Z,7.70
2022-09-23T11:14:16.781Z,6.30
2022-09-23T11:17:14.615Z,8.80
2022-09-23T11:20:23.026Z,7.07
2022-09-23T11:23:08.061Z,6.47
2022-09-23T11:25:40.973Z,7.13
2022-09-23T11:28:10.211Z,8.30
2022-09-23T11:31:05.579Z,7.10
2022-09-23T11:33:55.644Z,8.97
2022-09-23T11:36:32.725Z,8.57
2022-09-23T11:39:01.394Z,7.03
2022-09-23T11:41:36.075Z,8.20
2022-09-23T11:44:16.005Z,8.30
2022-09-23T11:46:46.594Z,9.57
2022-09-23T11:49:30.461Z,8.57
2022-09-23T11:52:14.248Z,7.70
2022-09-23T11:54:49.538Z,9.37
2022-09-23T11:57:49.754Z,6.70
2022-09-23T12:00:23.013Z,9.00
2022-09-23T12:03:15.597Z,9.97
2022-09-23T12:05:47.558Z,8.63
2022-09-23T12:08:39.461Z,8.57
2022-09-23T12:11:30.565Z,8.50
2022-09-23T12:14:19.282Z,8.30
2022-09-23T12:16:55.166Z,7.37
2022-09-23T12:19:55.446Z,8.40
2022-09-23T12:22:40.836Z,7.63
2022-09-23T12:25:26.572Z,9.03
2022-09-23T12:27:55.945Z,7.60
2022-09-23T12:30:27.846Z,7.53
2022-09-23T12:33:14.749Z,7.80
2022-09-23T12:35:45.318Z,7.77
2022-09-23T12:38:14.728Z,8.53
2022-09-23T12:40:44.483Z,6.73
2022-09-23T12:43:18.865Z,7.30
2022-09-23T12:45:45.627Z,7.70
2022-09-23T12:48:17.999Z,6.57
2022-09-23T12:51:02.838Z,6.30
2022-09-23T12:53:53.405Z,8.23
2022-09-23T12:56:29.752Z,9.10
2022-09-23T12:59:01.706Z,7.13
2022-09-23T13:01:35.325Z,5.97
2022-09-23T13:04:20.593Z,9.07
2022-09-23T13:07:05.043Z,7.23
2022-09-23T13:09:37.482Z,6.53
2022-09-23T13:12:08.480Z,10.13
2022-09-23T13:14:37.809Z,5.40
2022-09-23T13:17:04.515Z,4.93
2022-09-23T13:19:35.345Z,6.70
2022-09-23T13:22:09.357Z,5.07
2022-09-23T13:24:44.361Z,5.30
2022-09-23T13:27:33.282Z,8.97
2022-09-23T13:30:07.775Z,5.87
2022-09-23T13:32:45.151Z,5.80
2022-09-23T13:35:32.608Z,4.67
2022-09-23T13:37:59.047Z,8.13
2022-09-23T13:40:29.004Z,5.73
2022-09-23T13:43:05.030Z,5.73
2022-09-23T13:45:32.357Z,6.00
2022-09-23T13:48:07.276Z,5.93
2022-09-23T13:50:38.391Z,5.80
2022-09-23T13:53:10.436Z,6.60
2022-09-23T13:55:39.106Z,5.60
2022-09-23T13:58:20.454Z,4.63
2022-09-23T14:00:47.666Z,3.63
2022-09-23T14:03:36.543Z,5.13
2022-09-23T14:06:12.826Z,4.13
2022-09-23T14:08:43.722Z,6.87
2022-09-23T14:11:16.153Z,5.13
2022-09-23T14:13:43.897Z,5.90
2022-09-23T14:16:14.872Z,6.07
2022-09-23T14:18:45.592Z,6.50
2022-09-23T14:21:49.512Z,5.93
2022-09-23T14:24:33.626Z,7.37
2022-09-23T14:27:15.659Z,4.57
2022-09-23T14:29:47.754Z,6.43
2022-09-23T14:32:18.753Z,10.13
2022-09-23T14:35:04.981Z,6.40
2022-09-23T14:38:00.763Z,5.53
2022-09-23T14:40:30.228Z,5.43
2022-09-23T14:43:11.102Z,3.87
2022-09-23T14:45:39.972Z,7.10
2022-09-23T14:48:14.549Z,4.30
2022-09-23T14:50:49.500Z,4.23
2022-09-23T14:53:24.687Z,3.97
2022-09-23T14:56:07.286Z,4.87
2022-09-23T14:58:54.850Z,4.73
2022-09-23T15:01:41.621Z,6.10
2022-09-23T15:04:14.088Z,6.07
2022-09-23T15:06:44.836Z,5.40
2022-09-23T15:09:20.092Z,5.30
2022-09-23T15:11:47.120Z,5.40
2022-09-23T15:14:36.593Z,6.83
2022-09-23T15:17:02.444Z,9.43
2022-09-23T15:19:31.501Z,5.10
2022-09-23T15:21:57.973Z,7.13
2022-09-23T15:24:44.984Z,6.73
2022-09-23T15:27:22.523Z,6.17
2022-09-23T15:29:50.091Z,5.67
2022-09-23T15:32:16.665Z,8.23
2022-09-23T15:34:43.045Z,5.47
2022-09-23T15:37:12.559Z,6.33
2022-09-23T15:39:38.925Z,7.27
2022-09-23T15:42:07.125Z,5.47
2022-09-23T15:44:33.620Z,6.90
2022-09-23T15:47:01.045Z,8.37
2022-09-23T15:49:39.100Z,5.13
2022-09-23T15:52:07.114Z,4.90
2022-09-23T15:54:33.760Z,5.70
2022-09-23T15:57:01.061Z,7.47
2022-09-23T15:59:28.666Z,5.53
2022-09-23T16:01:56.754Z,7.07
2022-09-23T16:04:23.659Z,8.03
2022-09-23T16:06:50.026Z,9.27
2022-09-23T16:09:16.465Z,7.60
2022-09-23T16:11:46.109Z,7.53
2022-09-23T16:14:19.226Z,8.80
2022-09-23T16:16:47.731Z,8.80
2022-09-23T16:19:16.073Z,8.30
2022-09-23T16:21:43.151Z,6.33
2022-09-23T16:24:17.806Z,6.80
2022-09-23T16:26:46.545Z,7.43
2022-09-23T16:29:13.555Z,9.63
2022-09-23T16:31:40.056Z,11.63
2022-09-23T16:34:07.006Z,11.80
2022-09-23T16:36:37.488Z,10.87
2022-09-23T16:39:06.750Z,10.27
2022-09-23T16:41:33.928Z,8.33
2022-09-23T16:44:02.162Z,10.60
2022-09-23T16:46:29.380Z,12.13
2022-09-23T16:48:57.479Z,8.50
2022-09-23T16:51:30.648Z,13.23
2022-09-23T16:53:58.855Z,11.63
2022-09-23T16:56:28.893Z,12.23
2022-09-23T16:58:56.385Z,12.50
2022-09-23T17:01:43.700Z,11.30
2022-09-23T17:04:10.577Z,10.67
2022-09-23T17:06:44.818Z,9.57
2022-09-23T17:09:11.862Z,12.40
2022-09-23T17:11:38.241Z,13.03
2022-09-23T17:14:05.593Z,11.63
2022-09-23T17:16:33.656Z,11.27
2022-09-23T17:19:06.427Z,12.93
2022-09-23T17:21:32.883Z,14.40
2022-09-23T17:23:59.285Z,11.17
2022-09-23T17:26:27.092Z,12.17
2022-09-23T17:28:55.756Z,14.20
2022-09-23T17:31:23.670Z,13.83
2022-09-23T17:33:51.630Z,15.10
2022-09-23T17:36:18.900Z,11.97
2022-09-23T17:38:46.875Z,13.67
2022-09-23T17:41:14.481Z,12.93
2022-09-23T17:43:41.275Z,13.13
2022-09-23T17:46:11.217Z,16.10
2022-09-23T17:48:39.618Z,13.57
2022-09-23T17:51:11.783Z,12.40
2022-09-23T17:53:39.983Z,15.63
2022-09-23T17:56:27.104Z,14.60
2022-09-23T17:58:53.977Z,15.77
2022-09-23T18:01:25.546Z,15.93
2022-09-23T18:04:00.351Z,18.30
2022-09-23T18:06:31.315Z,13.47
2022-09-23T18:09:01.404Z,15.63
2022-09-23T18:11:29.633Z,15.23
2022-09-23T18:14:17.753Z,15.17
2022-09-23T18:16:45.884Z,16.30
2022-09-23T18:19:15.385Z,15.27
2022-09-23T18:21:44.807Z,16.00
2022-09-23T18:26:59.919Z,12.20
2022-09-23T18:29:26.695Z,15.23
2022-09-23T18:31:53.188Z,17.43
2022-09-23T18:34:20.195Z,25.40
2022-09-23T18:36:46.605Z,24.80
2022-09-23T18:39:13.392Z,28.70
2022-09-23T18:41:40.360Z,23.73
2022-09-23T18:44:06.841Z,19.00
2022-09-23T18:46:33.322Z,17.20
2022-09-23T18:49:18.731Z,17.23
2022-09-23T18:51:56.103Z,17.87
2022-09-23T18:54:25.535Z,15.43
2022-09-23T18:56:52.711Z,18.37
2022-09-23T18:59:21.111Z,16.37
2022-09-23T19:01:49.785Z,16.70
2022-09-23T19:04:18.919Z,17.83
2022-09-23T19:06:45.575Z,16.13
2022-09-23T19:09:12.426Z,18.50
2022-09-23T19:11:39.244Z,18.67
2022-09-23T19:14:10.812Z,18.13
2022-09-23T19:16:38.423Z,18.07
2022-09-23T19:19:05.397Z,19.57
2022-09-23T19:21:32.723Z,18.57
2022-09-23T19:24:03.420Z,16.90
2022-09-23T19:26:37.542Z,20.67
2022-09-23T19:29:05.872Z,17.70
2022-09-23T19:31:34.926Z,21.30
2022-09-23T19:34:10.557Z,22.33
2022-09-23T19:36:39.457Z,20.93
2022-09-23T19:39:08.696Z,23.50
2022-09-23T19:41:35.435Z,21.53
2022-09-23T19:44:03.302Z,21.73
2022-09-23T19:46:33.880Z,23.00
2022-09-23T19:49:00.616Z,19.47
2022-09-23T19:51:28.204Z,26.53
2022-09-23T19:53:54.643Z,17.47
2022-09-23T19:56:21.001Z,20.97
2022-09-23T19:58:54.154Z,16.47
2022-09-23T20:01:22.014Z,18.17
2022-09-23T20:03:49.053Z,15.73
2022-09-23T20:06:16.766Z,16.47
2022-09-23T20:08:44.289Z,16.00
2022-09-23T20:11:19.714Z,14.23
2022-09-23T20:13:47.335Z,15.10
2022-09-23T20:16:16.411Z,12.77
2022-09-23T20:18:43.740Z,12.70
2022-09-23T20:21:13.400Z,14.30
2022-09-23T20:23:40.206Z,15.90
2022-09-23T20:26:26.178Z,14.70
2022-09-23T20:28:52.823Z,13.10
2022-09-23T20:31:23.782Z,14.50
2022-09-23T20:33:52.175Z,13.67
2022-09-23T20:36:18.548Z,12.63
2022-09-23T20:38:44.934Z,14.37
2022-09-23T20:41:11.353Z,14.37
2022-09-23T20:43:37.721Z,12.60
2022-09-23T20:46:05.294Z,13.27
2022-09-23T20:48:31.766Z,15.10
2022-09-23T20:51:05.483Z,16.37
2022-09-23T20:53:32.571Z,12.87
2022-09-23T20:55:59.616Z,16.23
2022-09-23T20:58:29.038Z,14.90
2022-09-23T21:01:05.958Z,14.00
2022-09-23T21:03:32.754Z,17.50
2022-09-23T21:06:01.413Z,12.87
2022-09-23T21:08:27.894Z,14.70
2022-09-23T21:10:59.024Z,14.90
2022-09-23T21:13:25.441Z,17.33
2022-09-23T21:15:52.026Z,15.73
2022-09-23T21:18:22.381Z,15.53
2022-09-23T21:20:59.943Z,14.83
2022-09-23T21:23:33.359Z,16.33
2022-09-23T21:26:30.026Z,16.53
2022-09-23T21:29:00.799Z,17.00
2022-09-23T21:31:33.781Z,16.47
2022-09-23T21:34:05.442Z,20.30
2022-09-23T21:36:34.521Z,18.05
2022-09-23T21:39:01.720Z,18.23
2022-09-23T21:41:28.256Z,18.77
2022-09-23T21:43:57.824Z,16.93
2022-09-23T21:46:25.335Z,15.17
2022-09-23T21:48:54.878Z,20.67
2022-09-23T21:51:25.386Z,21.37
2022-09-23T21:53:54.403Z,20.00
2022-09-23T21:56:32.778Z,21.37
2022-09-23T21:58:59.897Z,20.33
2022-09-23T22:01:33.133Z,20.80
2022-09-23T22:04:05.186Z,18.43
2022-09-23T22:06:31.874Z,20.13
2022-09-23T22:09:00.837Z,19.37
2022-09-23T22:11:50.965Z,19.50
2022-09-23T22:14:19.626Z,20.07
2022-09-23T22:16:46.314Z,23.23
2022-09-23T22:19:15.585Z,23.13
2022-09-23T22:21:45.193Z,21.57
2022-09-23T22:24:12.496Z,21.40
2022-09-23T22:26:41.567Z,24.10
2022-09-23T22:29:29.721Z,23.83
2022-09-23T22:32:15.067Z,21.37
2022-09-23T22:34:50.060Z,19.07
2022-09-23T22:37:20.383Z,24.03
2022-09-23T22:39:47.003Z,20.33
2022-09-23T22:42:14.290Z,23.20
2022-09-23T22:44:40.860Z,21.63
2022-09-23T22:47:08.124Z,23.57
2022-09-23T22:49:34.909Z,21.80
2022-09-23T22:52:04.044Z,24.13
2022-09-23T22:54:33.989Z,23.63
2022-09-23T22:57:03.769Z,23.40
2022-09-23T22:59:30.298Z,21.73
2022-09-23T23:01:57.166Z,22.77
2022-09-23T23:04:23.748Z,23.53
2022-09-23T23:06:50.153Z,19.93
2022-09-23T23:09:18.181Z,22.03
2022-09-23T23:11:45.662Z,18.80
2022-09-23T23:14:13.427Z,19.47
2022-09-23T23:16:40.198Z,20.10
2022-09-23T23:19:11.968Z,20.70
2022-09-23T23:21:38.867Z,18.50
2022-09-23T23:24:05.429Z,21.07
2022-09-23T23:26:33.892Z,19.50
2022-09-23T23:29:01.538Z,22.63
2022-09-23T23:31:32.042Z,18.73
2022-09-23T23:33:58.778Z,19.23
2022-09-23T23:36:25.257Z,19.60
2022-09-23T23:38:51.745Z,20.23
2022-09-23T23:41:21.900Z,20.33
2022-09-23T23:43:54.871Z,19.03
2022-09-23T23:46:22.000Z,18.37
2022-09-23T23:48:49.129Z,19.20
2022-09-23T23:51:16.336Z,20.10
2022-09-23T23:53:43.439Z,18.63
2022-09-23T23:56:13.045Z,21.50
2022-09-23T23:58:39.968Z,24.07
